Time;durP1;ratioP1;P1;durP2;ratioP2;P2;SDS_P1;SDS_P2;PMS_P1;PMS_P2;Temp;Humidity;BMP_temperature;BMP_pressure;BME280_temperature;BME280_humidity;BME280_pressure;Samples;Min_cycle;Max_cycle;Signal;HPM_P1;HPM_P2
2022/12/05 00:01:21;;;;;;;29.60;16.25;;;6.10;99.90;;;;;;6063231;23;97944;-74
2022/12/05 00:03:50;;;;;;;25.75;16.88;;;6.10;99.90;;;;;;6065538;23;92377;-73
2022/12/05 00:06:18;;;;;;;33.30;19.98;;;6.10;99.90;;;;;;6064662;23;92414;-74
2022/12/05 00:08:46;;;;;;;26.65;16.50;;;6.10;99.90;;;;;;6065933;23;93281;-74
2022/12/05 00:11:16;;;;;;;27.67;15.63;;;6.10;99.90;;;;;;6089073;23;93147;-73
2022/12/05 00:13:44;;;;;;;26.08;15.30;;;6.10;99.90;;;;;;6088905;23;92441;-74
2022/12/05 00:16:14;;;;;;;26.58;15.65;;;6.00;99.90;;;;;;6089928;23;92053;-74
2022/12/05 00:18:41;;;;;;;27.38;16.30;;;6.00;99.90;;;;;;6066014;23;93330;-74
2022/12/05 00:21:13;;;;;;;25.67;13.95;;;6.00;99.90;;;;;;6064794;23;92364;-74
2022/12/05 00:23:41;;;;;;;13.32;10.00;;;6.10;99.90;;;;;;6063163;23;94835;-74
2022/12/05 00:26:08;;;;;;;25.92;16.13;;;6.00;99.90;;;;;;6066441;23;92411;-74
2022/12/05 00:28:35;;;;;;;28.85;16.65;;;6.00;99.90;;;;;;6088852;23;95762;-74
2022/12/05 00:31:08;;;;;;;27.60;16.42;;;6.10;99.90;;;;;;6064713;23;92969;-74
2022/12/05 00:33:36;;;;;;;27.83;17.20;;;6.20;99.90;;;;;;6088766;23;92505;-74
2022/12/05 00:36:05;;;;;;;27.80;15.70;;;6.10;99.90;;;;;;6066409;23;92442;-74
2022/12/05 00:38:32;;;;;;;25.33;15.70;;;6.20;99.90;;;;;;6088891;23;95855;-74
2022/12/05 00:41:06;;;;;;;31.42;16.23;;;6.20;99.90;;;;;;6040854;23;93062;-74
2022/12/05 00:43:33;;;;;;;28.38;16.60;;;6.20;99.90;;;;;;6066358;23;92311;-74
2022/12/05 00:46:05;;;;;;;27.75;17.77;;;6.20;99.90;;;;;;6066282;23;92656;-73
2022/12/05 00:48:32;;;;;;;28.23;18.00;;;6.30;99.90;;;;;;6087306;23;98074;-73
2022/12/05 00:51:09;;;;;;;30.17;18.65;;;6.30;99.90;;;;;;6064317;23;97778;-74
2022/12/05 00:53:36;;;;;;;31.33;17.42;;;6.40;99.90;;;;;;6064848;23;92388;-74
2022/12/05 00:56:06;;;;;;;27.95;17.55;;;6.30;99.90;;;;;;6064489;23;92895;-74
2022/12/05 00:58:33;;;;;;;28.05;16.13;;;6.40;99.90;;;;;;6066130;23;93084;-73
2022/12/05 01:01:10;;;;;;;29.92;17.02;;;6.40;99.90;;;;;;6064350;23;93157;-74
2022/12/05 01:03:37;;;;;;;31.83;18.88;;;6.40;99.90;;;;;;6066371;23;92414;-73
2022/12/05 01:06:05;;;;;;;29.40;17.52;;;6.40;99.90;;;;;;6066130;23;101880;-73
2022/12/05 01:08:34;;;;;;;32.47;18.58;;;6.40;99.90;;;;;;6088846;23;95854;-74
2022/12/05 01:11:01;;;;;;;31.95;17.77;;;6.40;99.90;;;;;;6064330;23;92487;-74
2022/12/05 01:13:29;;;;;;;29.98;17.80;;;6.50;99.90;;;;;;6064810;23;94811;-74
2022/12/05 01:15:56;;;;;;;34.67;19.90;;;6.50;99.90;;;;;;6088196;23;92485;-73
2022/12/05 01:18:24;;;;;;;33.33;18.33;;;6.50;99.90;;;;;;6064483;23;92383;-74
2022/12/05 01:20:51;;;;;;;33.15;19.10;;;6.60;99.90;;;;;;6065909;23;93002;-74
2022/12/05 01:23:19;;;;;;;35.97;19.58;;;6.60;99.90;;;;;;6064583;23;92457;-74
2022/12/05 01:25:49;;;;;;;40.13;20.70;;;6.60;99.90;;;;;;6065961;23;92410;-74
2022/12/05 01:28:17;;;;;;;37.05;19.45;;;6.60;99.90;;;;;;6064269;23;95687;-74
2022/12/05 01:30:46;;;;;;;35.10;20.08;;;6.60;99.90;;;;;;6066283;23;92930;-74
2022/12/05 01:33:13;;;;;;;35.05;17.38;;;6.60;99.90;;;;;;6061193;23;92510;-74
2022/12/05 01:35:41;;;;;;;35.35;18.73;;;6.60;99.90;;;;;;6064748;23;92853;-74
2022/12/05 01:38:11;;;;;;;39.67;21.80;;;6.60;99.90;;;;;;6064367;23;95587;-74
2022/12/05 01:40:38;;;;;;;38.35;19.73;;;6.70;99.90;;;;;;6088972;23;95374;-74
2022/12/05 01:43:18;;;;;;;37.80;20.60;;;6.70;99.90;;;;;;6065838;23;92332;-74
2022/12/05 01:45:45;;;;;;;35.25;19.50;;;6.70;99.90;;;;;;6065878;23;92421;-74
2022/12/05 01:48:26;;;;;;;38.42;20.67;;;6.70;99.90;;;;;;6040177;23;92427;-74
2022/12/05 01:50:54;;;;;;;35.28;19.33;;;6.70;99.90;;;;;;6065639;23;93036;-74
2022/12/05 01:53:22;;;;;;;35.30;18.27;;;6.70;99.90;;;;;;6088931;23;92630;-73
2022/12/05 01:55:49;;;;;;;34.38;18.45;;;6.70;99.90;;;;;;6066238;23;91574;-74
2022/12/05 01:58:18;;;;;;;37.97;20.65;;;6.80;99.90;;;;;;6065833;23;93193;-74
2022/12/05 02:00:46;;;;;;;37.05;20.92;;;6.80;99.90;;;;;;6063943;23;95604;-74
2022/12/05 02:03:17;;;;;;;37.35;20.85;;;6.80;99.90;;;;;;6063188;23;94844;-74
2022/12/05 02:05:48;;;;;;;39.20;20.25;;;6.80;99.90;;;;;;6066033;23;92353;-74
2022/12/05 02:08:15;;;;;;;40.38;21.48;;;6.80;99.90;;;;;;6065906;23;93260;-74
2022/12/05 02:10:49;;;;;;;41.90;20.70;;;6.80;99.90;;;;;;6064227;23;95413;-74
2022/12/05 02:13:42;;;;;;;40.50;20.37;;;6.90;99.90;;;;;;6066062;23;92591;-74
2022/12/05 02:16:40;;;;;;;34.55;19.48;;;6.90;99.90;;;;;;6088667;23;92416;-74
2022/12/05 02:19:13;;;;;;;34.38;19.67;;;6.90;99.90;;;;;;6064079;23;93219;-73
2022/12/05 02:22:10;;;;;;;39.10;20.02;;;6.80;99.90;;;;;;6064871;23;92908;-74
2022/12/05 02:25:09;;;;;;;39.58;23.98;;;6.90;99.90;;;;;;6065819;23;92327;-74
2022/12/05 02:27:36;;;;;;;36.65;19.33;;;6.80;99.90;;;;;;6065712;23;92454;-73
2022/12/05 02:30:16;;;;;;;39.78;20.75;;;6.80;99.90;;;;;;6061907;23;98107;-74
2022/12/05 02:32:50;;;;;;;36.95;19.35;;;6.80;99.90;;;;;;6065710;23;95251;-74
2022/12/05 02:35:55;;;;;;;37.20;20.48;;;6.90;99.90;;;;;;6062288;23;92327;-74
2022/12/05 02:38:28;;;;;;;39.38;19.50;;;6.90;99.90;;;;;;6055314;23;92422;-74
2022/12/05 02:41:15;;;;;;;36.88;19.20;;;6.90;99.90;;;;;;6088578;23;95812;-74
2022/12/05 02:43:58;;;;;;;36.33;19.23;;;6.90;99.90;;;;;;6065856;23;92880;-74
2022/12/05 02:46:28;;;;;;;33.65;16.83;;;7.00;99.90;;;;;;6088809;23;92430;-74
2022/12/05 02:49:07;;;;;;;44.72;20.70;;;6.90;99.90;;;;;;6088897;23;91706;-73
2022/12/05 02:51:39;;;;;;;34.13;18.58;;;6.90;99.90;;;;;;6065866;23;92964;-74
2022/12/05 02:54:10;;;;;;;39.35;18.70;;;6.90;99.90;;;;;;6088273;23;92426;-74
2022/12/05 02:56:39;;;;;;;36.15;18.55;;;6.80;99.90;;;;;;6064421;23;94697;-74
2022/12/05 02:59:06;;;;;;;32.85;18.10;;;6.80;99.90;;;;;;6065766;23;92939;-74
2022/12/05 03:01:33;;;;;;;36.83;18.92;;;6.80;99.90;;;;;;6088419;23;95599;-74
2022/12/05 03:04:03;;;;;;;30.67;15.68;;;6.80;99.90;;;;;;6063164;23;106882;-74
2022/12/05 03:06:33;;;;;;;27.17;15.45;;;6.80;99.90;;;;;;6088325;23;92446;-74
2022/12/05 03:09:22;;;;;;;29.90;17.58;;;6.80;99.90;;;;;;6065499;23;92327;-73
2022/12/05 03:11:53;;;;;;;29.13;15.75;;;6.80;99.90;;;;;;6063923;23;97221;-74
2022/12/05 03:14:28;;;;;;;27.55;16.17;;;6.80;99.90;;;;;;6088827;23;92852;-74
2022/12/05 03:17:02;;;;;;;30.23;18.33;;;6.80;99.90;;;;;;6088596;23;92466;-74
2022/12/05 03:19:40;;;;;;;23.50;13.95;;;6.80;99.90;;;;;;6065837;23;92319;-74
2022/12/05 03:22:19;;;;;;;30.80;16.77;;;6.70;99.90;;;;;;6063665;23;95572;-74
2022/12/05 03:24:47;;;;;;;25.45;15.50;;;6.70;99.90;;;;;;6065513;23;95281;-74
2022/12/05 03:27:41;;;;;;;34.08;18.52;;;6.70;99.90;;;;;;6065311;23;92335;-74
2022/12/05 03:30:11;;;;;;;25.97;15.43;;;6.70;99.90;;;;;;6065337;23;92436;-74
2022/12/05 03:33:13;;;;;;;30.08;16.38;;;6.70;99.90;;;;;;6088499;23;96173;-74
2022/12/05 03:35:58;;;;;;;27.55;16.38;;;6.80;99.90;;;;;;6061720;23;93316;-74
2022/12/05 03:38:30;;;;;;;22.17;13.73;;;6.80;99.90;;;;;;6063281;23;92580;-74
2022/12/05 03:41:29;;;;;;;25.42;15.65;;;6.80;99.90;;;;;;6066006;23;91645;-74
2022/12/05 03:43:58;;;;;;;24.63;14.60;;;6.80;99.90;;;;;;6040245;23;95626;-74
2022/12/05 03:46:52;;;;;;;26.52;16.05;;;6.70;99.90;;;;;;6065354;23;93095;-74
2022/12/05 03:49:19;;;;;;;;;;;6.80;99.90;;;;;;6064059;23;94776;-74
2022/12/05 03:51:56;;;;;;;21.83;12.70;;;6.70;99.90;;;;;;6067607;23;92435;-74
2022/12/05 03:54:40;;;;;;;22.48;13.23;;;6.70;99.90;;;;;;6065025;23;93324;-74
2022/12/05 03:57:16;;;;;;;22.70;12.55;;;6.70;99.90;;;;;;6065016;23;93109;-74
2022/12/05 03:59:51;;;;;;;23.70;14.50;;;6.70;99.90;;;;;;6065492;23;92367;-74
2022/12/05 04:02:26;;;;;;;24.83;14.18;;;6.70;99.90;;;;;;6063480;23;92448;-74
2022/12/05 04:05:00;;;;;;;22.30;13.70;;;6.70;99.90;;;;;;6065184;23;93147;-74
2022/12/05 04:07:31;;;;;;;25.08;15.18;;;6.70;99.90;;;;;;6065721;23;93992;-74
2022/12/05 04:10:09;;;;;;;23.73;13.77;;;6.70;99.90;;;;;;6087955;23;92924;-74
2022/12/05 04:12:38;;;;;;;24.02;13.93;;;6.70;99.90;;;;;;6088253;23;92472;-74
2022/12/05 04:15:11;;;;;;;24.08;14.77;;;6.70;99.90;;;;;;6063182;23;94728;-74
2022/12/05 04:17:57;;;;;;;21.95;13.82;;;6.70;99.90;;;;;;6087889;23;95559;-74
2022/12/05 04:23:22;;;;;;;24.50;14.52;;;6.70;99.90;;;;;;6064950;23;92393;-74
2022/12/05 04:26:16;;;;;;;22.05;12.43;;;6.70;99.90;;;;;;6064933;23;92447;-74
2022/12/05 04:28:55;;;;;;;22.95;12.48;;;6.70;99.90;;;;;;6064930;23;93616;-74
2022/12/05 04:31:27;;;;;;;17.58;10.30;;;6.60;99.90;;;;;;6063422;23;92397;-74
2022/12/05 04:34:00;;;;;;;16.67;11.32;;;6.50;99.90;;;;;;6060470;23;91744;-74
2022/12/05 04:36:35;;;;;;;16.85;11.00;;;6.50;99.90;;;;;;6064657;23;92935;-74
2022/12/05 04:39:02;;;;;;;18.88;12.45;;;6.50;99.90;;;;;;6063574;23;93003;-74
2022/12/05 04:41:35;;;;;;;16.55;11.15;;;6.50;99.90;;;;;;6063305;23;94820;-74
2022/12/05 04:44:10;;;;;;;18.02;11.70;;;6.50;99.90;;;;;;6088065;23;92325;-74
2022/12/05 04:46:40;;;;;;;15.27;10.55;;;6.50;99.90;;;;;;6064748;23;93180;-74
2022/12/05 04:49:10;;;;;;;17.27;11.27;;;6.50;99.90;;;;;;6087670;23;96781;-74
2022/12/05 04:51:39;;;;;;;12.93;9.23;;;6.60;99.90;;;;;;6064798;23;92435;-74
2022/12/05 04:54:13;;;;;;;17.30;10.43;;;6.60;99.90;;;;;;6066957;23;92470;-74
2022/12/05 04:56:41;;;;;;;;;;;6.60;99.90;;;;;;6089707;23;95649;-74
2022/12/05 04:59:08;;;;;;;11.77;8.25;;;6.50;99.90;;;;;;6068793;23;92534;-74
2022/12/05 05:01:42;;;;;;;14.57;9.43;;;6.50;99.90;;;;;;6065472;23;92404;-74
2022/12/05 05:04:14;;;;;;;13.93;9.00;;;6.50;99.90;;;;;;6067067;23;92442;-74
2022/12/05 05:06:42;;;;;;;12.15;7.95;;;6.60;99.90;;;;;;6088310;23;95420;-74
2022/12/05 05:09:09;;;;;;;10.45;7.70;;;6.60;99.90;;;;;;6065021;23;96850;-74
2022/12/05 05:11:37;;;;;;;11.43;8.68;;;6.60;99.90;;;;;;6066963;23;92338;-74
2022/12/05 05:14:04;;;;;;;9.18;7.38;;;6.60;99.90;;;;;;6066951;23;92378;-74
2022/12/05 05:16:38;;;;;;;12.25;8.05;;;6.70;99.90;;;;;;6064568;23;94284;-74
2022/12/05 05:19:06;;;;;;;10.93;7.93;;;6.70;99.90;;;;;;6089556;23;95574;-74
2022/12/05 05:21:37;;;;;;;9.40;7.30;;;6.70;99.90;;;;;;6066025;23;102714;-74
2022/12/05 05:24:05;;;;;;;8.73;6.75;;;6.70;99.90;;;;;;6067329;23;91664;-74
2022/12/05 05:26:34;;;;;;;9.05;7.30;;;6.70;99.90;;;;;;6066062;23;103587;-74
2022/12/05 05:29:02;;;;;;;9.63;7.40;;;6.70;99.90;;;;;;6089191;23;95425;-74
2022/12/05 05:31:29;;;;;;;9.35;7.25;;;6.70;99.90;;;;;;6088179;23;95066;-74
2022/12/05 05:33:57;;;;;;;9.85;7.32;;;6.70;99.90;;;;;;6064899;23;92471;-73
2022/12/05 05:36:25;;;;;;;10.82;8.02;;;6.70;99.90;;;;;;6088804;23;96387;-74
2022/12/05 05:38:54;;;;;;;11.18;8.10;;;6.80;99.90;;;;;;6064693;23;95751;-74
2022/12/05 05:41:27;;;;;;;12.15;7.82;;;6.80;99.90;;;;;;6064675;23;92682;-74
2022/12/05 05:43:55;;;;;;;10.77;7.33;;;6.80;99.90;;;;;;6066909;23;92391;-74
2022/12/05 05:46:25;;;;;;;9.20;6.30;;;6.80;99.90;;;;;;6065864;23;104487;-74
2022/12/05 05:48:53;;;;;;;7.65;6.07;;;6.80;99.90;;;;;;6067007;23;92985;-74
2022/12/05 05:51:20;;;;;;;10.25;6.95;;;6.80;99.90;;;;;;6065024;23;92547;-74
2022/12/05 05:53:48;;;;;;;11.85;8.52;;;6.80;99.90;;;;;;6065231;23;92519;-74
2022/12/05 05:56:18;;;;;;;8.35;6.72;;;6.80;99.90;;;;;;6063429;23;95513;-74
2022/12/05 05:58:55;;;;;;;8.75;6.68;;;6.80;99.90;;;;;;6065326;23;97144;-74
2022/12/05 06:01:23;;;;;;;8.95;7.22;;;6.80;99.90;;;;;;6089268;23;93006;-74
2022/12/05 06:03:50;;;;;;;11.75;7.60;;;6.80;99.90;;;;;;6089469;23;92389;-74
2022/12/05 06:06:17;;;;;;;6.22;5.18;;;6.80;99.90;;;;;;6064726;23;95829;-74
2022/12/05 06:08:45;;;;;;;8.38;5.70;;;6.70;99.90;;;;;;6089374;23;93062;-74
2022/12/05 06:11:24;;;;;;;10.68;7.20;;;6.70;99.90;;;;;;6064631;23;97474;-74
2022/12/05 06:13:59;;;;;;;9.27;6.35;;;6.70;99.90;;;;;;6065831;23;91708;-74
2022/12/05 06:16:28;;;;;;;7.00;5.05;;;6.70;99.90;;;;;;6066418;23;93083;-74
2022/12/05 06:18:56;;;;;;;9.88;5.70;;;6.70;99.90;;;;;;6065666;23;109538;-74
2022/12/05 06:21:23;;;;;;;7.93;5.03;;;6.70;99.90;;;;;;6088012;23;95323;-74
2022/12/05 06:23:51;;;;;;;9.82;5.45;;;6.70;99.90;;;;;;6066674;23;92305;-74
2022/12/05 06:26:20;;;;;;;7.22;6.35;;;6.70;99.90;;;;;;6065212;23;93204;-74
2022/12/05 06:28:47;;;;;;;9.00;6.05;;;6.70;99.90;;;;;;6064451;23;95505;-74
2022/12/05 06:31:18;;;;;;;9.07;6.65;;;6.70;99.90;;;;;;6066512;23;92341;-74
2022/12/05 06:33:46;;;;;;;10.18;6.47;;;6.70;99.90;;;;;;6066453;23;92377;-74
2022/12/05 06:36:16;;;;;;;7.22;5.95;;;6.70;99.90;;;;;;6062446;23;93844;-74
2022/12/05 06:38:43;;;;;;;8.85;5.55;;;6.70;99.90;;;;;;6066642;23;93015;-74
2022/12/05 06:41:15;;;;;;;8.75;6.38;;;6.60;99.90;;;;;;6089216;23;92419;-74
2022/12/05 06:43:43;;;;;;;9.75;7.10;;;6.60;99.90;;;;;;6066227;23;92463;-74
2022/12/05 06:46:12;;;;;;;9.30;6.20;;;6.60;99.90;;;;;;6064691;23;95514;-74
2022/12/05 06:48:39;;;;;;;8.07;5.97;;;6.60;99.90;;;;;;6063563;23;106370;-74
2022/12/05 06:51:09;;;;;;;10.35;6.97;;;6.60;99.90;;;;;;6064831;23;92395;-74
2022/12/05 06:53:36;;;;;;;11.02;6.80;;;6.60;99.90;;;;;;6088960;23;96456;-74
2022/12/05 06:56:15;;;;;;;9.90;6.55;;;6.50;99.90;;;;;;6064765;23;92462;-74
2022/12/05 06:58:44;;;;;;;14.00;7.30;;;6.50;99.90;;;;;;6089013;23;92391;-73
2022/12/05 07:04:04;;;;;;;10.27;7.10;;;6.50;99.90;;;;;;6066763;23;91584;-74
2022/12/05 07:06:32;;;;;;;8.25;5.28;;;6.50;99.90;;;;;;6065943;23;93278;-74
2022/12/05 07:08:59;;;;;;;11.75;7.32;;;6.50;99.90;;;;;;6066116;23;92980;-74
2022/12/05 07:11:26;;;;;;;7.68;6.10;;;6.50;99.90;;;;;;6064880;23;94716;-74
2022/12/05 07:13:53;;;;;;;8.95;6.10;;;6.50;99.90;;;;;;6064877;23;92496;-74
2022/12/05 07:16:20;;;;;;;12.00;7.28;;;6.50;99.90;;;;;;6065892;23;103203;-74
2022/12/05 07:18:47;;;;;;;14.98;6.93;;;6.50;99.90;;;;;;6065854;23;92998;-74
2022/12/05 07:21:15;;;;;;;7.18;5.78;;;6.50;99.90;;;;;;6066398;23;92402;-74
2022/12/05 07:23:45;;;;;;;9.02;5.72;;;6.50;99.90;;;;;;6040408;23;92932;-74
2022/12/05 07:26:14;;;;;;;11.45;6.93;;;6.50;99.90;;;;;;6088541;23;95850;-74
2022/12/05 07:28:41;;;;;;;10.20;6.78;;;6.50;99.90;;;;;;6066258;23;92979;-74
2022/12/05 07:31:12;;;;;;;6.55;4.95;;;6.50;99.90;;;;;;6089055;23;92379;-74
2022/12/05 07:33:39;;;;;;;8.65;6.38;;;6.50;99.90;;;;;;6066147;23;92389;-74
2022/12/05 07:36:08;;;;;;;7.32;5.50;;;6.50;99.90;;;;;;6086506;23;106135;-74
2022/12/05 07:38:36;;;;;;;9.63;6.88;;;6.50;99.90;;;;;;6065784;23;94178;-74
2022/12/05 07:41:15;;;;;;;11.60;6.47;;;6.50;99.90;;;;;;6064879;23;93053;-74
2022/12/05 07:43:41;;;;;;;11.32;6.97;;;6.50;99.90;;;;;;6064571;23;92332;-74
2022/12/05 07:46:12;;;;;;;8.38;6.53;;;6.50;99.90;;;;;;6065945;23;93149;-74
2022/12/05 07:48:39;;;;;;;14.10;8.50;;;6.50;99.90;;;;;;6065711;23;92887;-74
2022/12/05 07:51:08;;;;;;;11.55;7.80;;;6.50;99.90;;;;;;6066318;23;93161;-74
2022/12/05 07:53:36;;;;;;;13.15;6.55;;;6.50;99.90;;;;;;6066262;23;91685;-74
2022/12/05 07:56:05;;;;;;;11.10;7.40;;;6.50;99.90;;;;;;6065879;23;92437;-74
2022/12/05 07:58:33;;;;;;;9.93;7.03;;;6.50;99.90;;;;;;6065817;23;92327;-74
2022/12/05 08:01:17;;;;;;;12.52;7.43;;;6.50;99.90;;;;;;6064599;23;94809;-74
2022/12/05 08:03:45;;;;;;;14.55;7.95;;;6.50;99.90;;;;;;6065809;23;92384;-74
2022/12/05 08:06:18;;;;;;;10.93;7.60;;;6.50;99.90;;;;;;6065503;23;98279;-74
2022/12/05 08:08:48;;;;;;;12.10;8.05;;;6.50;99.90;;;;;;6065511;23;93351;-74
2022/12/05 08:11:21;;;;;;;12.38;8.82;;;6.50;99.90;;;;;;6065302;23;92508;-74
2022/12/05 08:13:49;;;;;;;10.50;7.68;;;6.60;99.90;;;;;;6065772;23;92899;-74
2022/12/05 08:16:19;;;;;;;9.50;7.15;;;6.60;99.90;;;;;;6063790;23;95676;-74
2022/12/05 08:18:46;;;;;;;8.02;5.35;;;6.60;99.90;;;;;;6088831;23;95651;-74
2022/12/05 08:21:16;;;;;;;8.82;6.68;;;6.60;99.90;;;;;;6064311;23;92551;-74
2022/12/05 08:23:44;;;;;;;8.60;6.47;;;6.60;99.90;;;;;;6065656;23;92493;-74
2022/12/05 08:26:17;;;;;;;10.93;6.72;;;6.60;99.90;;;;;;6065280;23;95506;-74
2022/12/05 08:28:44;;;;;;;11.57;6.93;;;6.60;99.90;;;;;;6065190;23;95429;-75
2022/12/05 08:31:14;;;;;;;8.73;6.40;;;6.50;99.90;;;;;;6065561;23;92523;-74
2022/12/05 08:33:42;;;;;;;8.55;5.90;;;6.60;99.90;;;;;;6066819;23;92323;-74
2022/12/05 08:36:12;;;;;;;10.57;6.93;;;6.60;99.90;;;;;;6066595;23;93263;-74
2022/12/05 08:38:39;;;;;;;9.43;5.40;;;6.60;99.90;;;;;;6066557;23;92937;-75
2022/12/05 08:41:09;;;;;;;9.05;6.72;;;6.60;99.90;;;;;;6067084;23;92310;-74
2022/12/05 08:43:36;;;;;;;10.20;6.93;;;6.60;99.90;;;;;;6090465;23;91759;-74
2022/12/05 08:46:04;;;;;;;11.32;7.18;;;6.60;99.90;;;;;;6089355;23;94177;-74
2022/12/05 08:48:32;;;;;;;8.15;6.50;;;6.60;99.90;;;;;;6065406;23;92542;-74
2022/12/05 08:51:03;;;;;;;7.88;5.63;;;6.70;99.90;;;;;;6087907;23;94718;-74
2022/12/05 08:53:30;;;;;;;6.35;4.60;;;6.60;99.90;;;;;;6065696;23;92452;-74
2022/12/05 08:56:02;;;;;;;11.52;6.90;;;6.60;99.90;;;;;;6065065;23;93292;-74
2022/12/05 08:58:29;;;;;;;10.45;6.72;;;6.60;99.90;;;;;;6065245;23;93097;-74
2022/12/05 09:01:14;;;;;;;8.73;6.18;;;6.60;99.90;;;;;;6066819;23;93195;-74
2022/12/05 09:03:42;;;;;;;12.23;7.57;;;6.60;99.90;;;;;;6067136;23;92409;-74
2022/12/05 09:06:20;;;;;;;11.82;6.45;;;6.60;99.90;;;;;;6089791;23;93973;-74
2022/12/05 09:08:48;;;;;;;8.27;6.57;;;6.60;99.90;;;;;;6067097;23;93096;-74
2022/12/05 09:11:25;;;;;;;7.22;4.95;;;6.60;99.90;;;;;;6066866;23;92487;-74
2022/12/05 09:13:53;;;;;;;8.30;6.70;;;6.60;99.90;;;;;;6066957;23;92805;-74
2022/12/05 09:16:30;;;;;;;10.60;6.78;;;6.60;99.90;;;;;;6087535;23;106315;-74
2022/12/05 09:19:16;;;;;;;11.55;6.43;;;6.60;99.90;;;;;;6064786;23;97794;-74
2022/12/05 09:21:43;;;;;;;8.93;6.25;;;6.60;99.90;;;;;;6067014;23;92435;-74
2022/12/05 09:24:12;;;;;;;9.93;6.45;;;6.60;99.90;;;;;;6064489;23;104344;-74
2022/12/05 09:26:39;;;;;;;11.60;7.75;;;6.60;99.90;;;;;;6040600;23;94207;-74
2022/12/05 09:29:07;;;;;;;8.90;6.80;;;6.70;99.90;;;;;;6066386;23;93036;-74
2022/12/05 09:31:44;;;;;;;9.13;6.00;;;6.70;99.90;;;;;;6066888;23;92412;-74
2022/12/05 09:34:12;;;;;;;7.95;6.03;;;6.60;99.90;;;;;;6089908;23;91709;-74
2022/12/05 09:36:39;;;;;;;9.45;5.75;;;6.60;99.90;;;;;;6064652;23;95717;-74
2022/12/05 09:39:07;;;;;;;11.68;7.07;;;6.60;99.90;;;;;;6066309;23;93009;-74
2022/12/05 09:42:04;;;;;;;12.32;7.72;;;6.60;99.90;;;;;;6063623;23;94960;-74
2022/12/05 09:44:43;;;;;;;13.93;7.72;;;6.60;99.90;;;;;;6067201;23;92304;-74
2022/12/05 09:47:23;;;;;;;9.07;6.05;;;6.60;99.90;;;;;;6064754;23;95713;-74
2022/12/05 09:50:12;;;;;;;12.13;7.32;;;6.60;99.90;;;;;;6066279;23;93438;-74
2022/12/05 09:53:00;;;;;;;14.85;8.80;;;6.50;99.90;;;;;;6067038;23;92557;-74
2022/12/05 09:56:02;;;;;;;10.38;7.20;;;6.50;99.90;;;;;;6065051;23;92422;-74
2022/12/05 09:58:32;;;;;;;12.07;7.35;;;6.60;99.90;;;;;;6054270;23;94224;-74
2022/12/05 10:01:05;;;;;;;13.73;8.07;;;6.50;99.90;;;;;;6064657;23;98966;-73
2022/12/05 10:03:36;;;;;;;10.87;5.87;;;6.60;99.90;;;;;;6066927;23;93145;-74
2022/12/05 10:06:25;;;;;;;11.68;6.82;;;6.60;99.90;;;;;;6089413;23;92376;-74
2022/12/05 10:09:12;;;;;;;12.10;8.23;;;6.60;99.90;;;;;;6063205;23;95790;-74
2022/12/05 10:11:50;;;;;;;16.45;8.40;;;6.70;99.90;;;;;;6045249;23;98327;-77
2022/12/05 10:14:32;;;;;;;10.55;6.30;;;6.70;99.90;;;;;;6066755;23;92339;-76
2022/12/05 10:17:09;;;;;;;14.65;6.85;;;6.70;99.90;;;;;;6089387;23;92463;-74
2022/12/05 10:19:45;;;;;;;12.68;7.10;;;6.70;99.90;;;;;;6066619;23;93258;-74
2022/12/05 10:22:17;;;;;;;14.75;6.93;;;6.70;99.90;;;;;;6066450;23;93068;-74
2022/12/05 10:24:54;;;;;;;;;;;6.70;99.90;;;;;;6065938;23;93020;-74
2022/12/05 10:27:29;;;;;;;15.15;7.82;;;6.70;99.90;;;;;;6091540;23;91761;-74
2022/12/05 10:30:04;;;;;;;9.98;6.93;;;6.70;99.90;;;;;;6064782;23;93631;-74
2022/12/05 10:32:49;;;;;;;12.23;7.95;;;6.80;99.90;;;;;;6088730;23;93011;-74
2022/12/05 10:35:31;;;;;;;10.63;7.00;;;6.80;99.90;;;;;;6059767;23;95277;-74
2022/12/05 10:38:03;;;;;;;11.57;7.57;;;6.80;99.90;;;;;;6089480;23;92533;-74
2022/12/05 10:40:39;;;;;;;11.50;7.20;;;6.80;99.90;;;;;;6066259;23;93663;-74
2022/12/05 10:43:10;;;;;;;8.55;5.80;;;6.80;99.90;;;;;;6066002;23;92758;-74
2022/12/05 10:45:42;;;;;;;12.27;5.93;;;6.80;99.90;;;;;;6089576;23;92453;-74
2022/12/05 10:48:14;;;;;;;10.98;6.72;;;6.80;99.90;;;;;;6065536;23;92992;-74
2022/12/05 10:50:45;;;;;;;10.68;7.03;;;6.80;99.90;;;;;;6064658;23;95567;-81
2022/12/05 10:53:16;;;;;;;11.02;8.55;;;6.80;99.90;;;;;;6089428;23;95547;-73
2022/12/05 10:55:46;;;;;;;8.73;6.78;;;6.80;99.90;;;;;;6066639;23;92941;-77
2022/12/05 10:58:32;;;;;;;10.02;5.60;;;6.80;99.90;;;;;;6066514;23;92441;-73
2022/12/05 11:01:13;;;;;;;11.15;7.40;;;6.80;99.90;;;;;;6064325;23;96150;-74
2022/12/05 11:03:42;;;;;;;10.57;5.60;;;6.80;99.90;;;;;;6064153;23;95440;-73
2022/12/05 11:06:24;;;;;;;12.35;7.07;;;6.80;99.90;;;;;;6066190;23;92401;-74
2022/12/05 11:09:17;;;;;;;14.05;7.53;;;6.80;99.90;;;;;;6066433;23;92386;-74
2022/12/05 11:12:08;;;;;;;8.57;6.35;;;6.90;99.90;;;;;;6066156;23;93140;-73
2022/12/05 11:14:35;;;;;;;10.13;7.32;;;6.80;99.90;;;;;;6066217;23;92846;-74
2022/12/05 11:17:04;;;;;;;9.98;6.45;;;6.70;99.90;;;;;;6066195;23;92291;-73
2022/12/05 11:19:36;;;;;;;11.95;6.90;;;6.70;99.90;;;;;;6066345;23;99257;-74
2022/12/05 11:22:06;;;;;;;8.88;5.30;;;6.70;99.90;;;;;;6065947;23;93193;-74
2022/12/05 11:24:35;;;;;;;13.18;7.35;;;6.70;99.90;;;;;;6064689;23;93601;-73
2022/12/05 11:27:31;;;;;;;10.77;7.28;;;6.70;99.90;;;;;;6062720;23;96740;-74
2022/12/05 11:30:04;;;;;;;10.60;7.35;;;6.70;99.90;;;;;;6053443;23;92447;-73
2022/12/05 11:32:32;;;;;;;11.27;7.10;;;6.70;99.90;;;;;;6065968;23;93128;-74
2022/12/05 11:35:26;;;;;;;10.15;6.38;;;6.70;99.90;;;;;;6065685;23;92731;-74
2022/12/05 11:37:58;;;;;;;12.90;6.60;;;6.70;99.90;;;;;;6064862;23;92561;-73
2022/12/05 11:40:47;;;;;;;7.93;5.57;;;6.70;99.90;;;;;;6088873;23;92412;-74
2022/12/05 11:43:16;;;;;;;11.23;6.40;;;6.70;99.90;;;;;;6064165;23;93083;-74
2022/12/05 11:46:07;;;;;;;7.55;5.32;;;6.60;99.90;;;;;;6066482;23;92819;-73
2022/12/05 11:48:58;;;;;;;11.82;6.20;;;6.60;99.90;;;;;;6064854;23;92823;-73
2022/12/05 11:53:45;;;;;;;14.15;6.10;;;6.60;99.90;;;;;;5010199;27;1392312;-74
2022/12/05 11:56:18;;;;;;;8.60;4.60;;;6.50;99.90;;;;;;5040755;27;89031;-73
2022/12/05 11:59:11;;;;;;;7.10;4.78;;;6.50;99.90;;;;;;5054123;27;89272;-74
2022/12/05 12:02:12;;;;;;;7.88;5.55;;;6.60;99.90;;;;;;5055760;27;88366;-73
2022/12/05 12:05:06;;;;;;;7.18;4.75;;;6.60;99.90;;;;;;5052896;27;90791;-74
2022/12/05 12:07:43;;;;;;;5.15;3.95;;;6.60;99.90;;;;;;5055693;27;87487;-73
2022/12/05 12:10:21;;;;;;;6.13;4.45;;;6.60;99.90;;;;;;5053740;27;89288;-73
2022/12/05 12:13:18;;;;;;;6.72;4.28;;;6.50;99.90;;;;;;5055155;27;88617;-74
2022/12/05 12:16:20;;;;;;;6.47;4.07;;;6.60;99.90;;;;;;5071273;27;88081;-74
2022/12/05 12:19:07;;;;;;;5.55;3.97;;;6.60;99.90;;;;;;5055319;27;87343;-74
2022/12/05 12:21:52;;;;;;;6.57;4.53;;;6.50;99.90;;;;;;5053311;27;89834;-73
2022/12/05 12:24:37;;;;;;;6.68;3.75;;;6.60;99.90;;;;;;5055069;27;87537;-73
2022/12/05 12:27:25;;;;;;;4.40;3.55;;;6.60;99.90;;;;;;5053451;27;90706;-74
2022/12/05 12:30:11;;;;;;;4.40;3.72;;;6.60;99.90;;;;;;5070989;27;87536;-73
2022/12/05 12:32:53;;;;;;;5.78;3.72;;;6.60;99.90;;;;;;5070882;27;87482;-74
2022/12/05 12:35:41;;;;;;;6.95;4.53;;;6.60;99.90;;;;;;5070350;27;87381;-73
2022/12/05 12:38:42;;;;;;;5.82;3.88;;;6.70;99.90;;;;;;5070751;27;88117;-74
2022/12/05 12:41:50;;;;;;;4.78;3.75;;;6.70;99.90;;;;;;5054917;27;87474;-76
2022/12/05 12:44:54;;;;;;;5.10;3.33;;;6.70;99.90;;;;;;5054490;27;87376;-74
2022/12/05 12:47:35;;;;;;;5.50;3.72;;;6.70;99.90;;;;;;5054605;27;88415;-76
2022/12/05 12:50:24;;;;;;;5.75;4.10;;;6.70;99.90;;;;;;5054911;27;88076;-75
2022/12/05 12:53:04;;;;;;;3.45;3.13;;;6.70;99.90;;;;;;5053534;27;87607;-76
2022/12/05 12:55:53;;;;;;;4.68;3.80;;;6.80;99.90;;;;;;5070346;27;87563;-75
2022/12/05 12:58:47;;;;;;;5.50;3.15;;;6.80;99.90;;;;;;5054545;27;88243;-75
2022/12/05 13:01:29;;;;;;;7.15;4.10;;;6.70;99.90;;;;;;5051605;27;91051;-75
2022/12/05 13:04:11;;;;;;;4.50;3.13;;;6.70;99.90;;;;;;5056700;27;87445;-75
2022/12/05 13:06:42;;;;;;;6.35;3.97;;;6.70;99.90;;;;;;5056449;27;89525;-75
2022/12/05 13:09:39;;;;;;;3.55;2.72;;;6.70;99.90;;;;;;5039527;28;90940;-75
2022/12/05 13:12:11;;;;;;;6.57;4.07;;;6.70;99.90;;;;;;5040953;28;87693;-75
2022/12/05 13:14:43;;;;;;;4.35;3.28;;;6.70;99.90;;;;;;5040647;28;87329;-75
2022/12/05 13:17:16;;;;;;;5.45;3.90;;;6.60;99.90;;;;;;5040841;28;87420;-75
2022/12/05 13:19:47;;;;;;;6.40;3.88;;;6.70;99.90;;;;;;5040576;27;88422;-75
2022/12/05 13:22:17;;;;;;;5.22;4.20;;;6.70;99.90;;;;;;5040867;28;88018;-75
2022/12/05 13:24:44;;;;;;;5.85;3.70;;;6.60;99.90;;;;;;5040544;28;87920;-75
2022/12/05 13:27:17;;;;;;;5.55;3.63;;;6.70;99.90;;;;;;5022412;28;88416;-75
2022/12/05 13:30:00;;;;;;;7.07;4.07;;;6.70;99.90;;;;;;5040511;27;89351;-75
2022/12/05 13:32:39;;;;;;;6.20;3.87;;;6.70;99.90;;;;;;5040443;27;87772;-75